Terminal Aerodrome Forecast
Issued by NWS

Home | Current Version | Previous Version | Text Only | Print | Product List | Glossary On
Versions: 1 2 3 4 5 6 7 8 9 10 11 12
237
FTPA31 PHFO 111734
TAFHTO
TAF
PHTO 111734Z 1118/1218 23005KT P6SM FEW030 SCT045
     FM112000 06009KT P6SM FEW025 BKN045
     FM120400 VRB05KT P6SM FEW025 BKN045
     FM120700 23005KT P6SM VCSH SCT025 BKN045=

USA.gov is the U.S. government's official web portal to all federal, state and local government web resources and services.